Time;durP1;ratioP1;P1;durP2;ratioP2;P2;SDS_P1;SDS_P2;PMS_P1;PMS_P2;Temp;Humidity;BMP_temperature;BMP_pressure;BME280_temperature;BME280_humidity;BME280_pressure;Samples;Min_cycle;Max_cycle;Signal;HPM_P1;HPM_P2
2021/05/15 00:00:32;;;;;;;7.05;4.90;;;;;;;16.57;59.65;98598.32;1653619;85;21061;-72
2021/05/15 00:02:59;;;;;;;6.67;5.20;;;;;;;16.69;59.46;98597.75;1665411;85;21575;-72
2021/05/15 00:05:26;;;;;;;7.03;5.55;;;;;;;16.78;59.20;98601.20;1648842;87;21608;-72
2021/05/15 00:07:52;;;;;;;6.78;5.60;;;;;;;16.80;59.17;98603.20;1663547;85;21067;-71
2021/05/15 00:10:21;;;;;;;8.23;5.45;;;;;;;16.77;59.25;98598.20;1676366;85;21570;-71
2021/05/15 00:12:48;;;;;;;8.13;5.35;;;;;;;16.77;59.24;98606.21;1645658;87;21113;-73
2021/05/15 00:15:15;;;;;;;5.60;4.97;;;;;;;16.82;59.21;98607.84;1669155;86;21058;-73
2021/05/15 00:17:41;;;;;;;8.90;5.55;;;;;;;16.78;59.46;98597.20;1659193;86;21062;-73
2021/05/15 00:20:12;;;;;;;10.43;6.33;;;;;;;16.76;59.49;98593.05;1661311;86;21054;-72
2021/05/15 00:22:39;;;;;;;8.10;5.62;;;;;;;16.64;59.65;98604.63;1638808;87;21113;-73
2021/05/15 00:25:07;;;;;;;7.42;6.33;;;;;;;16.44;60.04;98588.22;1649306;86;21540;-73
2021/05/15 00:27:34;;;;;;;7.83;6.20;;;;;;;16.28;60.53;98595.77;1643826;86;21132;-73
2021/05/15 00:30:00;;;;;;;10.85;7.22;;;;;;;16.16;60.97;98593.52;1664534;86;21060;-73
2021/05/15 00:32:26;;;;;;;7.10;5.08;;;;;;;16.15;61.17;98599.84;1712642;84;21041;-72
2021/05/15 00:34:53;;;;;;;6.97;5.30;;;;;;;16.29;60.91;98600.11;1688602;84;21049;-72
2021/05/15 00:37:20;;;;;;;9.08;5.45;;;;;;;16.36;60.82;98595.76;1687892;84;21600;-72
2021/05/15 00:39:46;;;;;;;7.10;5.53;;;;;;;16.34;60.83;98595.94;1705594;84;21026;-72
2021/05/15 00:42:12;;;;;;;7.62;5.85;;;;;;;16.27;60.91;98599.47;1668725;86;21048;-72
2021/05/15 00:44:45;;;;;;;8.23;6.25;;;;;;;16.11;61.26;98605.17;1704628;84;21074;-72
2021/05/15 00:47:16;;;;;;;9.77;6.43;;;;;;;15.97;61.82;98605.88;1643732;87;21056;-72
2021/05/15 00:49:43;;;;;;;8.93;5.95;;;;;;;15.97;61.82;98605.88;1666766;86;21977;-72
2021/05/15 00:52:10;;;;;;;22.75;7.35;;;;;;;15.83;61.96;98600.27;1685771;84;21548;-72
2021/05/15 00:54:38;;;;;;;23.75;7.25;;;;;;;15.79;62.28;98591.41;1661517;86;21618;-71
2021/05/15 00:57:05;;;;;;;10.05;6.17;;;;;;;15.92;62.18;98592.23;1685984;85;21048;-70
2021/05/15 00:59:31;;;;;;;8.93;6.08;;;;;;;16.00;62.01;98597.05;1635471;87;21633;-71
2021/05/15 01:01:58;;;;;;;8.28;6.67;;;;;;;15.95;62.15;98607.91;1653576;86;21706;-71
2021/05/15 01:04:24;;;;;;;9.88;6.97;;;;;;;15.84;62.21;98607.27;1704402;84;21096;-71
2021/05/15 01:06:51;;;;;;;10.32;6.95;;;;;;;15.68;62.58;98605.42;1668268;86;21032;-70
2021/05/15 01:09:18;;;;;;;10.50;6.33;;;;;;;15.53;63.04;98609.25;1696757;84;21038;-70
2021/05/15 01:11:46;;;;;;;13.48;6.60;;;;;;;15.46;63.35;98608.28;1693977;84;21053;-70
2021/05/15 01:14:12;;;;;;;8.20;6.35;;;;;;;15.52;63.37;98614.25;1699415;84;21088;-71
2021/05/15 01:16:41;;;;;;;9.95;7.20;;;;;;;15.44;63.62;98609.45;1694233;84;21085;-70
2021/05/15 01:19:07;;;;;;;11.05;7.50;;;;;;;15.31;63.96;98615.28;1714434;84;21097;-72
2021/05/15 01:21:35;;;;;;;10.38;7.22;;;;;;;15.18;64.36;98611.27;1662883;86;21087;-71
2021/05/15 01:24:03;;;;;;;9.25;7.03;;;;;;;15.11;64.64;98610.25;1712524;83;21067;-71
2021/05/15 01:26:30;;;;;;;9.35;6.83;;;;;;;15.03;64.65;98619.06;1709131;84;21103;-71
2021/05/15 01:29:00;;;;;;;8.35;6.33;;;;;;;15.02;64.78;98613.91;1699711;84;21086;-71
2021/05/15 01:31:27;;;;;;;10.32;6.87;;;;;;;15.15;64.58;98627.56;1692676;84;21094;-71
2021/05/15 01:33:54;;;;;;;10.08;7.15;;;;;;;15.16;64.61;98619.91;1693885;84;21034;-71
2021/05/15 01:36:20;;;;;;;10.70;6.90;;;;;;;15.13;64.67;98626.91;1709210;83;21059;-71
2021/05/15 01:38:47;;;;;;;11.48;7.67;;;;;;;15.10;64.82;98620.56;1688221;84;21047;-72
2021/05/15 01:41:16;;;;;;;10.40;7.37;;;;;;;15.06;64.88;98623.23;1683185;84;21075;-71
2021/05/15 01:43:44;;;;;;;8.70;7.12;;;;;;;14.99;65.08;98629.72;1704326;84;21629;-72
2021/05/15 01:46:10;;;;;;;10.50;6.67;;;;;;;14.98;65.26;98622.72;1702797;84;21063;-71
2021/05/15 01:48:36;;;;;;;8.15;6.95;;;;;;;15.02;65.01;98618.73;1698780;84;21055;-71
2021/05/15 01:51:12;;;;;;;8.30;6.80;;;;;;;15.10;64.87;98624.56;1709345;83;21530;-71
2021/05/15 01:53:48;;;;;;;8.23;7.03;;;;;;;15.04;65.06;98619.41;1682878;84;21015;-71
2021/05/15 01:56:19;;;;;;;11.05;6.97;;;;;;;14.92;65.50;98620.70;1636405;87;21062;-71
2021/05/15 01:58:46;;;;;;;9.75;7.30;;;;;;;14.73;65.98;98613.84;1659329;86;21116;-71
2021/05/15 02:01:12;;;;;;;9.35;7.17;;;;;;;14.59;66.41;98616.60;1645433;86;21072;-71
2021/05/15 02:03:44;;;;;;;7.78;5.87;;;;;;;14.52;66.91;98614.27;1666590;86;21618;-71
2021/05/15 02:06:10;;;;;;;9.08;7.35;;;;;;;14.57;67.05;98618.61;1670941;86;21099;-71
2021/05/15 02:08:41;;;;;;;12.40;7.08;;;;;;;14.69;66.90;98619.16;1650100;85;21128;-71
2021/05/15 02:11:08;;;;;;;9.50;7.00;;;;;;;14.66;67.06;98628.30;1644360;86;21096;-71
2021/05/15 02:13:35;;;;;;;9.85;7.62;;;;;;;14.65;67.18;98620.49;1649631;86;21058;-71
2021/05/15 02:16:01;;;;;;;9.78;7.50;;;;;;;14.65;67.22;98623.16;1638686;87;21604;-70
2021/05/15 02:18:28;;;;;;;10.08;7.25;;;;;;;14.64;67.18;98623.66;1708990;84;21047;-71
2021/05/15 02:20:55;;;;;;;9.58;7.10;;;;;;;14.70;67.05;98628.82;1700774;84;21047;-71
2021/05/15 02:23:21;;;;;;;9.13;7.40;;;;;;;14.80;66.71;98626.03;1680956;84;21118;-71
2021/05/15 02:25:48;;;;;;;10.78;7.92;;;;;;;14.74;66.74;98635.48;1690531;84;21090;-71
2021/05/15 02:28:16;;;;;;;9.15;7.22;;;;;;;14.62;67.03;98635.43;1648167;86;21658;-72
2021/05/15 02:30:44;;;;;;;9.83;7.47;;;;;;;14.50;67.21;98633.06;1703751;83;21533;-72
2021/05/15 02:33:11;;;;;;;9.80;6.55;;;;;;;14.38;67.41;98639.14;1722295;83;21042;-72
2021/05/15 02:35:38;;;;;;;9.55;7.67;;;;;;;14.41;67.45;98641.98;1693788;85;21058;-73
2021/05/15 02:38:07;;;;;;;12.07;8.30;;;;;;;14.37;67.54;98649.95;1712343;83;21585;-73
2021/05/15 02:40:33;;;;;;;11.83;8.63;;;;;;;14.23;67.94;98648.23;1716476;83;21030;-73
2021/05/15 02:42:59;;;;;;;9.70;7.22;;;;;;;14.09;68.35;98648.80;1693978;85;21061;-73
2021/05/15 02:45:26;;;;;;;13.72;7.58;;;;;;;14.06;68.56;98653.11;1694626;83;21050;-73
2021/05/15 02:47:55;;;;;;;10.10;7.00;;;;;;;14.10;68.66;98658.45;1637851;86;21086;-73
2021/05/15 02:50:22;;;;;;;11.70;7.28;;;;;;;13.44;68.96;98563.73;1717510;83;21046;-73
2021/05/15 02:52:49;;;;;;;10.35;6.92;;;;;;;13.95;69.35;98665.34;1722816;83;21046;-73
2021/05/15 02:55:18;;;;;;;8.38;6.58;;;;;;;13.98;69.46;98670.33;1706175;83;21026;-73
2021/05/15 02:57:46;;;;;;;10.35;7.12;;;;;;;14.06;69.39;98672.55;1702139;83;21069;-73
2021/05/15 03:00:17;;;;;;;12.20;7.47;;;;;;;14.02;69.61;98675.19;1693919;83;21062;-72
2021/05/15 03:02:43;;;;;;;7.83;6.28;;;;;;;13.39;69.85;98588.08;1713212;83;21523;-71
2021/05/15 03:05:12;;;;;;;7.08;5.97;;;;;;;13.97;69.99;98671.34;1707247;83;21050;-70
2021/05/15 03:07:38;;;;;;;8.83;6.35;;;;;;;14.09;69.84;98679.38;1718762;83;21042;-70
2021/05/15 03:10:08;;;;;;;7.03;5.90;;;;;;;14.06;70.01;98677.05;1722892;83;21084;-70
2021/05/15 03:12:37;;;;;;;8.00;6.00;;;;;;;14.03;70.19;98678.70;1722667;83;21019;-70
2021/05/15 03:15:11;;;;;;;7.65;5.50;;;;;;;14.05;70.25;98686.00;1722769;83;21594;-70
2021/05/15 03:17:40;;;;;;;7.37;5.85;;;;;;;14.19;70.14;98686.74;1710397;83;22212;-70
2021/05/15 03:20:12;;;;;;;9.65;6.17;;;;;;;14.19;70.27;98680.09;1722726;83;21011;-71
2021/05/15 03:22:38;;;;;;;9.23;6.10;;;;;;;14.16;70.40;98677.77;1695196;83;21110;-71
2021/05/15 03:25:06;;;;;;;8.60;5.87;;;;;;;14.17;70.47;98669.28;1690315;84;21039;-71
2021/05/15 03:27:32;;;;;;;8.55;6.40;;;;;;;14.33;70.14;98675.20;1693519;84;21067;-71
2021/05/15 03:29:59;;;;;;;8.70;5.80;;;;;;;14.42;69.93;98681.73;1636425;88;21134;-72
2021/05/15 03:32:26;;;;;;;9.15;6.30;;;;;;;14.44;69.85;98685.56;1650741;86;21112;-72
2021/05/15 03:34:52;;;;;;;7.37;5.20;;;;;;;14.72;69.87;98682.73;1644901;86;21056;-71
2021/05/15 03:37:18;;;;;;;6.80;5.85;;;;;;;15.43;68.53;98689.03;1683956;84;21051;-72
2021/05/15 03:39:45;;;;;;;8.20;5.95;;;;;;;16.27;66.73;98686.98;1680840;85;21121;-72
2021/05/15 03:42:11;;;;;;;7.47;6.30;;;;;;;16.93;64.87;98681.44;1688882;84;21070;-71
2021/05/15 03:44:38;;;;;;;7.97;5.80;;;;;;;17.44;63.30;98687.63;1684244;84;21578;-71
2021/05/15 03:47:05;;;;;;;7.67;5.22;;;;;;;17.73;62.01;98688.72;1699847;84;21086;-72
2021/05/15 03:49:31;;;;;;;6.83;5.00;;;;;;;17.87;61.20;98690.28;1680854;85;21070;-72
2021/05/15 03:51:59;;;;;;;7.65;4.92;;;;;;;17.68;60.98;98697.78;1681502;84;21066;-72
2021/05/15 03:54:25;;;;;;;5.50;4.45;;;;;;;17.42;61.25;98696.31;1688475;84;21097;-72
2021/05/15 03:56:52;;;;;;;6.65;3.92;;;;;;;17.14;61.43;98699.49;1682388;84;21007;-71
2021/05/15 03:59:18;;;;;;;4.90;3.65;;;;;;;16.97;61.89;98704.59;1695283;84;21015;-71
2021/05/15 04:01:46;;;;;;;5.72;3.80;;;;;;;16.92;61.95;98701.12;1685097;84;21042;-71
2021/05/15 04:04:13;;;;;;;5.42;4.00;;;;;;;16.76;62.38;98710.52;1681096;85;21058;-71
2021/05/15 04:06:39;;;;;;;6.10;4.05;;;;;;;16.61;62.92;98705.06;1696739;84;21550;-70
2021/05/15 04:09:06;;;;;;;5.55;3.70;;;;;;;16.50;63.14;98708.43;1695349;84;21658;-71
2021/05/15 04:11:35;;;;;;;5.17;3.98;;;;;;;16.41;63.43;98709.47;1693511;84;21024;-71
2021/05/15 04:14:10;;;;;;;7.72;3.62;;;;;;;16.44;63.50;98707.77;1701139;84;21039;-71
2021/05/15 04:19:17;;;;;;;5.10;3.55;;;;;;;16.45;63.55;98714.78;1670297;85;21114;-71
2021/05/15 04:21:44;;;;;;;10.58;7.55;;;;;;;16.39;63.86;98715.47;1635667;87;21117;-72
2021/05/15 04:24:10;;;;;;;7.17;4.78;;;;;;;16.38;64.14;98719.13;1675294;86;21367;-72
2021/05/15 04:26:37;;;;;;;7.92;3.62;;;;;;;16.41;64.07;98709.47;1670246;84;21623;-72
2021/05/15 04:29:05;;;;;;;4.80;3.40;;;;;;;16.58;63.88;98716.91;1646185;86;21094;-71
2021/05/15 04:31:31;;;;;;;5.25;3.20;;;;;;;16.64;63.62;98710.07;1653304;86;21066;-71
2021/05/15 04:33:57;;;;;;;4.15;3.20;;;;;;;16.60;63.54;98716.25;1643681;83;21070;-71
2021/05/15 04:36:24;;;;;;;7.00;3.12;;;;;;;16.55;63.54;98717.27;1700736;83;21018;-71
2021/05/15 04:38:52;;;;;;;4.53;3.22;;;;;;;16.49;63.55;98713.43;1688507;85;21094;-72
2021/05/15 04:41:20;;;;;;;4.28;3.25;;;;;;;16.45;63.61;98719.30;1683532;83;21057;-72
2021/05/15 04:43:46;;;;;;;6.03;3.15;;;;;;;16.54;63.38;98720.42;1683413;83;21045;-72
2021/05/15 04:46:13;;;;;;;7.72;3.75;;;;;;;16.53;63.34;98722.78;1717184;83;21019;-71
2021/05/15 04:48:43;;;;;;;6.90;4.30;;;;;;;16.47;63.41;98726.13;1717304;83;21078;-72
2021/05/15 04:51:08;;;;;;;5.55;4.15;;;;;;;16.41;63.55;98727.30;1716204;83;22263;-71
2021/05/15 04:53:35;;;;;;;5.87;3.83;;;;;;;16.35;63.67;98727.48;1700580;83;21090;-71
2021/05/15 04:56:01;;;;;;;4.72;3.80;;;;;;;16.36;63.77;98735.31;1688598;85;21045;-71
2021/05/15 04:58:27;;;;;;;5.50;4.10;;;;;;;16.42;63.66;98734.30;1655387;87;21090;-71
2021/05/15 05:00:54;;;;;;;13.05;5.28;;;;;;;16.36;63.73;98735.31;1662568;86;21086;-70
2021/05/15 05:03:20;;;;;;;9.25;4.92;;;;;;;16.33;64.00;98737.48;1661138;86;21082;-69
2021/05/15 05:05:47;;;;;;;4.58;3.60;;;;;;;16.31;64.20;98743.52;1646140;86;21063;-69
2021/05/15 05:08:13;;;;;;;13.38;3.70;;;;;;;16.34;64.11;98749.83;1653068;86;21102;-70
2021/05/15 05:10:41;;;;;;;6.03;3.60;;;;;;;16.48;63.89;98742.96;1666684;86;21078;-69
2021/05/15 05:13:09;;;;;;;32.17;5.65;;;;;;;16.48;63.95;98746.48;1657980;86;21138;-71
2021/05/15 05:15:36;;;;;;;11.03;4.10;;;;;;;16.46;64.09;98751.15;1647940;86;21082;-71
2021/05/15 05:18:03;;;;;;;16.95;4.42;;;;;;;16.48;64.20;98761.16;1704905;84;21044;-71
2021/05/15 05:20:29;;;;;;;6.12;3.67;;;;;;;16.54;64.12;98756.45;1686827;84;21066;-71
2021/05/15 05:22:55;;;;;;;5.83;4.45;;;;;;;16.70;63.83;98755.58;1702597;84;21649;-71
2021/05/15 05:25:22;;;;;;;6.42;4.22;;;;;;;16.83;63.62;98759.04;1685677;84;21099;-70
2021/05/15 05:27:49;;;;;;;9.58;4.00;;;;;;;16.87;63.48;98759.02;1689554;84;21364;-71
2021/05/15 05:30:17;;;;;;;5.78;4.28;;;;;;;16.95;63.41;98756.84;1677649;84;21090;-71
2021/05/15 05:32:43;;;;;;;5.53;3.98;;;;;;;17.07;63.29;98761.30;1676439;84;21618;-71
2021/05/15 05:35:12;;;;;;;6.33;3.90;;;;;;;17.19;63.18;98759.91;1635908;88;21618;-72
2021/05/15 05:37:39;;;;;;;5.25;4.10;;;;;;;17.45;62.66;98762.77;1665453;86;21632;-73
2021/05/15 05:40:10;;;;;;;6.12;3.50;;;;;;;17.77;61.97;98760.88;1690817;84;21606;-72
2021/05/15 05:42:40;;;;;;;8.45;6.12;;;;;;;17.97;61.68;98759.92;1683191;84;21078;-72
2021/05/15 05:45:09;;;;;;;11.70;6.20;;;;;;;18.17;61.20;98765.61;1706665;84;21035;-72
2021/05/15 05:47:35;;;;;;;6.25;4.03;;;;;;;18.33;60.53;98761.11;1708790;84;21062;-71
2021/05/15 05:50:04;;;;;;;16.65;4.67;;;;;;;18.41;60.05;98761.02;1705587;84;21574;-72
2021/05/15 05:52:30;;;;;;;6.40;4.10;;;;;;;18.40;59.91;98764.73;1684445;84;21570;-71
2021/05/15 05:54:57;;;;;;;5.67;4.10;;;;;;;18.41;59.93;98774.40;1681825;84;21673;-71
2021/05/15 05:57:23;;;;;;;24.57;4.92;;;;;;;18.41;59.83;98770.91;1675998;85;21098;-71
2021/05/15 05:59:50;;;;;;;4.67;3.98;;;;;;;18.37;59.79;98778.45;1675895;85;21047;-71
2021/05/15 06:02:17;;;;;;;7.62;3.52;;;;;;;18.35;59.87;98779.17;1687358;84;21114;-72
2021/05/15 06:04:43;;;;;;;6.47;3.85;;;;;;;18.33;60.03;98783.34;1691447;84;21098;-72
2021/05/15 06:07:09;;;;;;;6.55;3.70;;;;;;;18.45;59.78;98777.06;1679131;84;21053;-71
2021/05/15 06:09:35;;;;;;;10.28;3.95;;;;;;;18.46;59.57;98780.55;1688648;85;21497;-71
2021/05/15 06:12:03;;;;;;;33.78;5.22;;;;;;;18.39;59.74;98777.78;1699119;84;21068;-71
2021/05/15 06:14:30;;;;;;;18.60;4.75;;;;;;;18.38;59.75;98788.67;1701319;84;21071;-71
2021/05/15 06:16:57;;;;;;;9.15;4.03;;;;;;;18.36;59.74;98788.02;1684408;84;21095;-71
2021/05/15 06:19:24;;;;;;;10.68;3.98;;;;;;;18.37;60.19;98786.48;1684779;84;21087;-71
2021/05/15 06:21:51;;;;;;;8.23;3.58;;;;;;;18.43;60.30;98795.13;1687711;84;21059;-72
2021/05/15 06:24:17;;;;;;;8.05;3.30;;;;;;;18.56;60.20;98785.65;1686025;84;21108;-72
2021/05/15 06:26:43;;;;;;;38.90;5.33;;;;;;;18.75;59.76;98785.09;1673515;85;21107;-73
2021/05/15 06:29:10;;;;;;;12.95;3.52;;;;;;;19.08;59.42;98790.11;1718778;83;21578;-72
2021/05/15 06:31:36;;;;;;;14.55;4.70;;;;;;;19.36;58.64;98793.44;1720523;82;21546;-72
2021/05/15 06:34:03;;;;;;;5.58;3.80;;;;;;;19.58;58.50;98790.80;1712663;82;21042;-71
2021/05/15 06:36:29;;;;;;;6.47;3.60;;;;;;;19.85;57.70;98791.92;1709265;82;21054;-72
2021/05/15 06:38:56;;;;;;;5.15;3.27;;;;;;;20.05;56.76;98790.77;1713712;83;21050;-70
2021/05/15 06:41:23;;;;;;;5.03;3.45;;;;;;;20.24;56.43;98800.02;1709195;83;21074;-73
2021/05/15 06:43:49;;;;;;;5.45;3.58;;;;;;;20.46;55.88;98802.14;1701051;83;21558;-70
2021/05/15 06:46:16;;;;;;;6.85;3.50;;;;;;;20.68;55.56;98802.08;1710529;83;21031;-70
2021/05/15 06:48:44;;;;;;;5.20;3.40;;;;;;;20.94;54.88;98799.27;1703780;83;21062;-71
2021/05/15 06:51:10;;;;;;;8.68;3.85;;;;;;;21.18;54.04;98802.49;1695270;83;21097;-70
2021/05/15 06:53:37;;;;;;;9.08;3.87;;;;;;;21.37;53.36;98803.08;1703151;83;21074;-72
2021/05/15 06:56:03;;;;;;;5.08;3.70;;;;;;;21.58;53.22;98805.34;1711219;83;21666;-71
2021/05/15 06:58:30;;;;;;;24.07;6.60;;;;;;;21.81;52.43;98802.81;1706146;83;21617;-72
2021/05/15 07:00:56;;;;;;;5.72;3.80;;;;;;;21.99;52.08;98798.18;1713702;83;21034;-71
2021/05/15 07:03:22;;;;;;;4.97;3.20;;;;;;;22.17;50.81;98805.64;1708473;83;21082;-71
2021/05/15 07:05:49;;;;;;;5.70;3.10;;;;;;;22.30;50.30;98804.28;1711433;83;21724;-71
2021/05/15 07:08:16;;;;;;;13.58;3.98;;;;;;;22.42;50.26;98808.58;1704611;83;21543;-72
2021/05/15 07:10:42;;;;;;;9.05;3.30;;;;;;;22.60;50.13;98816.02;1709309;83;21018;-71
2021/05/15 07:13:10;;;;;;;14.00;3.87;;;;;;;22.80;49.60;98805.72;1700359;83;21061;-71
2021/05/15 07:15:38;;;;;;;5.92;3.35;;;;;;;22.99;49.18;98809.41;1702409;83;21030;-71
2021/05/15 07:18:04;;;;;;;5.58;3.10;;;;;;;23.16;48.57;98817.38;1707354;83;21093;-71
2021/05/15 07:20:31;;;;;;;4.53;3.00;;;;;;;23.28;48.21;98814.02;1708763;83;21609;-70
2021/05/15 07:22:58;;;;;;;5.47;3.15;;;;;;;23.35;47.88;98815.64;1715904;83;21649;-73
2021/05/15 07:25:25;;;;;;;4.85;3.05;;;;;;;23.40;47.85;98810.44;1720311;83;21569;-70
2021/05/15 07:27:51;;;;;;;5.33;3.02;;;;;;;23.47;47.69;98811.75;1703701;83;21047;-71
2021/05/15 07:30:18;;;;;;;5.37;2.92;;;;;;;23.50;47.57;98810.48;1710681;83;21066;-71
2021/05/15 07:32:48;;;;;;;8.03;3.00;;;;;;;23.45;47.43;98817.05;1709632;83;21034;-72
2021/05/15 07:35:15;;;;;;;56.10;6.33;;;;;;;23.38;47.39;98811.69;1705675;83;21086;-70
2021/05/15 07:37:41;;;;;;;13.95;3.33;;;;;;;23.29;47.27;98812.95;1720984;83;21604;-71
2021/05/15 07:40:08;;;;;;;8.05;3.40;;;;;;;23.21;47.66;98815.38;1720045;83;21078;-71
2021/05/15 07:42:35;;;;;;;7.47;2.87;;;;;;;23.22;48.27;98820.58;1708339;83;21607;-71
2021/05/15 07:45:01;;;;;;;3.00;2.50;;;;;;;23.31;47.78;98815.77;1720742;83;21656;-71
2021/05/15 07:47:29;;;;;;;3.27;2.67;;;;;;;23.39;47.52;98822.80;1711362;83;21090;-71
2021/05/15 07:49:57;;;;;;;18.10;3.83;;;;;;;23.46;47.15;98824.11;1719667;83;21050;-72
2021/05/15 07:52:26;;;;;;;7.65;2.80;;;;;;;23.48;46.74;98816.11;1704058;83;21042;-71
2021/05/15 07:54:52;;;;;;;6.62;3.10;;;;;;;23.44;46.55;98818.09;1717688;83;21113;-73
2021/05/15 07:57:19;;;;;;;15.83;3.47;;;;;;;23.45;46.88;98807.61;1709128;83;21077;-72
2021/05/15 07:59:47;;;;;;;9.00;3.35;;;;;;;23.47;46.50;98804.19;1706069;83;21058;-73
2021/05/15 08:02:15;;;;;;;20.35;5.05;;;;;;;23.45;46.91;98808.42;1714248;83;21082;-72
2021/05/15 08:04:42;;;;;;;21.50;3.72;;;;;;;23.43;46.38;98811.03;1718368;83;21078;-70
2021/05/15 08:07:08;;;;;;;5.83;2.65;;;;;;;23.36;46.46;98811.06;1707604;83;21079;-71
2021/05/15 08:09:35;;;;;;;16.30;3.12;;;;;;;23.28;46.54;98813.48;1713192;83;21066;-73
2021/05/15 08:12:01;;;;;;;16.48;3.62;;;;;;;23.15;46.48;98811.67;1700182;83;21066;-72
2021/05/15 08:14:29;;;;;;;7.20;3.10;;;;;;;23.02;46.97;98817.09;1714123;83;21085;-72
2021/05/15 08:16:58;;;;;;;3.92;2.42;;;;;;;22.88;47.25;98821.16;1707786;83;21042;-72
2021/05/15 08:19:26;;;;;;;6.35;3.08;;;;;;;22.76;47.99;98820.13;1702253;83;21046;-73
2021/05/15 08:21:53;;;;;;;4.22;2.85;;;;;;;22.69;47.87;98826.88;1717571;83;21066;-72
2021/05/15 08:24:21;;;;;;;5.25;2.83;;;;;;;22.69;47.89;98822.84;1697657;83;21050;-71
2021/05/15 08:26:49;;;;;;;7.37;4.00;;;;;;;22.74;48.25;98820.88;1701862;83;21093;-72
2021/05/15 08:29:17;;;;;;;5.35;3.60;;;;;;;22.84;47.34;98816.38;1712563;83;21075;-71
2021/05/15 08:31:43;;;;;;;4.87;2.72;;;;;;;22.85;47.14;98816.70;1711937;83;21712;-71
2021/05/15 08:34:10;;;;;;;9.15;2.85;;;;;;;22.82;47.05;98814.44;1714022;83;21039;-71
2021/05/15 08:36:36;;;;;;;8.05;3.08;;;;;;;22.71;47.40;98823.47;1705935;83;21025;-71
2021/05/15 08:39:05;;;;;;;21.07;3.80;;;;;;;22.59;46.89;98830.53;1708969;83;22259;-71
2021/05/15 08:41:33;;;;;;;6.55;2.62;;;;;;;22.42;47.79;98825.56;1714867;83;21113;-71
2021/05/15 08:44:02;;;;;;;7.83;2.60;;;;;;;22.45;47.94;98827.55;1669739;85;21061;-71
2021/05/15 08:46:30;;;;;;;9.23;3.75;;;;;;;22.53;48.07;98825.97;1715097;83;21101;-70
2021/05/15 08:48:59;;;;;;;14.25;3.45;;;;;;;22.65;47.86;98820.27;1698994;83;21054;-71
2021/05/15 08:51:26;;;;;;;8.55;2.95;;;;;;;22.72;47.61;98823.79;1641076;86;21089;-70
2021/05/15 08:53:53;;;;;;;10.82;3.12;;;;;;;22.75;47.26;98828.75;1719662;83;21074;-71
2021/05/15 08:56:19;;;;;;;6.17;2.80;;;;;;;22.73;47.17;98825.95;1722906;83;21089;-71
2021/05/15 08:58:47;;;;;;;8.53;2.67;;;;;;;22.67;47.35;98826.78;1711626;83;21054;-71
2021/05/15 09:01:14;;;;;;;14.15;3.40;;;;;;;22.60;47.49;98829.50;1710086;83;21530;-72
2021/05/15 09:03:42;;;;;;;4.50;2.72;;;;;;;22.59;47.95;98829.18;1717109;83;21601;-71
2021/05/15 09:06:09;;;;;;;5.03;2.60;;;;;;;22.65;47.33;98825.66;1696399;83;21026;-70
2021/05/15 09:08:37;;;;;;;3.58;2.40;;;;;;;22.56;47.24;98829.61;1697545;83;21030;-71
2021/05/15 09:11:04;;;;;;;4.20;2.35;;;;;;;22.50;46.66;98825.86;1641096;86;21058;-70
2021/05/15 09:13:31;;;;;;;12.65;3.00;;;;;;;22.40;47.32;98827.66;1702977;83;21584;-70
2021/05/15 09:16:02;;;;;;;10.10;2.87;;;;;;;22.21;46.79;98829.77;1720899;83;21600;-69
2021/05/15 09:18:32;;;;;;;5.97;3.70;;;;;;;22.02;47.70;98834.95;1716924;83;21078;-70
2021/05/15 09:21:02;;;;;;;7.97;2.70;;;;;;;21.99;47.77;98832.64;1722520;83;21082;-70
2021/05/15 09:23:31;;;;;;;9.53;2.95;;;;;;;22.01;48.06;98837.81;1710657;83;21074;-70
2021/05/15 09:26:11;;;;;;;4.53;2.80;;;;;;;21.97;48.06;98832.04;1722242;83;21089;-70
2021/05/15 09:28:46;;;;;;;5.90;2.80;;;;;;;21.97;48.21;98834.73;1695502;83;21130;-71
2021/05/15 09:31:32;;;;;;;8.45;2.70;;;;;;;21.93;48.38;98836.15;1704632;83;21572;-70
2021/05/15 09:34:01;;;;;;;5.08;2.60;;;;;;;21.86;47.59;98843.41;1712925;83;21049;-70
2021/05/15 09:36:35;;;;;;;6.62;2.90;;;;;;;21.79;47.84;98841.20;1722915;83;21642;-71
2021/05/15 09:39:16;;;;;;;6.40;2.60;;;;;;;21.77;48.13;98854.34;1721231;83;21086;-71
2021/05/15 09:41:58;;;;;;;11.10;2.90;;;;;;;21.79;48.33;98854.66;1708426;83;21137;-71
2021/05/15 09:44:28;;;;;;;6.05;2.80;;;;;;;21.84;48.33;98858.91;1657685;86;21048;-70
2021/05/15 09:46:56;;;;;;;4.05;2.30;;;;;;;21.81;47.64;98845.88;1697614;84;21609;-71
2021/05/15 09:49:25;;;;;;;3.83;2.52;;;;;;;21.62;47.71;98845.59;1698026;84;21043;-71
2021/05/15 09:52:05;;;;;;;15.32;3.45;;;;;;;21.43;48.39;98850.69;1704345;83;21030;-70
2021/05/15 09:54:42;;;;;;;10.32;3.50;;;;;;;21.38;49.70;98854.49;1712323;83;21078;-71
2021/05/15 09:57:11;;;;;;;7.92;3.72;;;;;;;21.24;50.68;98858.13;1709891;83;21033;-70
2021/05/15 09:59:45;;;;;;;15.15;3.60;;;;;;;21.05;51.66;98864.55;1722497;83;21110;-71
2021/05/15 10:02:17;;;;;;;3.95;2.80;;;;;;;20.95;51.28;98873.48;1702931;83;21010;-72
2021/05/15 10:04:45;;;;;;;4.37;3.10;;;;;;;20.76;51.64;98870.98;1693664;85;21098;-71
2021/05/15 10:07:25;;;;;;;4.95;3.05;;;;;;;20.61;52.41;98876.41;1700741;83;21042;-72
2021/05/15 10:09:52;;;;;;;8.58;2.85;;;;;;;20.39;53.25;98864.35;1702949;83;21043;-73
2021/05/15 10:12:20;;;;;;;5.08;2.52;;;;;;;20.30;53.38;98868.20;1666868;85;21121;-71
2021/05/15 10:14:47;;;;;;;3.85;2.50;;;;;;;20.35;53.07;98879.19;1714597;83;21605;-72
2021/05/15 10:17:14;;;;;;;7.17;2.90;;;;;;;20.40;52.00;98883.47;1709774;83;21705;-72
2021/05/15 10:19:41;;;;;;;4.30;2.83;;;;;;;20.40;52.36;98883.47;1708029;83;21106;-71
2021/05/15 10:22:07;;;;;;;3.95;2.50;;;;;;;20.56;52.29;98880.19;1669559;86;21663;-71
2021/05/15 10:24:36;;;;;;;2.95;2.60;;;;;;;20.74;52.13;98885.11;1661829;85;21553;-72
2021/05/15 10:27:11;;;;;;;3.50;2.50;;;;;;;20.95;51.41;98881.55;1693500;84;21105;-72
2021/05/15 10:31:39;;;;;;;9.38;2.95;;;;;;;21.05;51.46;98877.14;1777655;79;22899;-72
2021/05/15 10:34:05;;;;;;;4.67;2.90;;;;;;;21.08;51.44;98880.28;1743302;82;21039;-72
2021/05/15 10:40:17;;;;;;;3.80;2.90;;;;;;;21.18;51.09;98873.73;1725419;79;67143;-81
2021/05/15 10:42:47;;;;;;;7.85;3.77;;;;;;;21.16;50.92;98870.41;1738637;82;21102;-80
2021/05/15 10:45:14;;;;;;;7.28;3.33;;;;;;;21.28;50.74;98869.64;1733333;83;21518;-80
2021/05/15 10:47:42;;;;;;;18.48;4.62;;;;;;;21.36;50.82;98876.71;1687240;84;21059;-80
2021/05/15 10:50:17;;;;;;;24.57;4.05;;;;;;;21.48;50.81;98904.39;1685928;84;21066;-80
2021/05/15 10:52:50;;;;;;;14.20;4.35;;;;;;;21.52;51.82;98932.54;1684331;84;21027;-78
2021/05/15 10:55:32;;;;;;;7.75;3.40;;;;;;;21.16;56.04;98937.61;1685056;84;21122;-78
2021/05/15 10:58:12;;;;;;;11.75;4.17;;;;;;;20.53;57.64;98919.53;1684959;84;21074;-79
2021/05/15 11:00:39;;;;;;;4.42;2.20;;;;;;;19.70;60.50;98931.94;1685523;85;21582;-84
2021/05/15 11:03:06;;;;;;;3.83;2.42;;;;;;;19.00;60.36;98922.81;1685529;84;21086;-78
2021/05/15 11:05:46;;;;;;;3.17;2.05;;;;;;;18.41;62.16;98918.94;1685475;84;21598;-79
2021/05/15 11:08:23;;;;;;;2.52;1.75;;;;;;;18.24;63.76;98917.42;1685565;85;21067;-78
2021/05/15 11:10:52;;;;;;;6.42;2.20;;;;;;;18.38;63.35;98911.28;1689382;85;21085;-78
2021/05/15 11:13:21;;;;;;;4.67;2.00;;;;;;;18.56;62.83;98910.15;1679854;85;21086;-78
2021/05/15 11:15:49;;;;;;;6.72;2.60;;;;;;;18.65;60.63;98909.06;1680258;85;21063;-78
2021/05/15 11:18:31;;;;;;;4.37;1.95;;;;;;;18.73;60.67;98907.63;1679873;85;21617;-80
2021/05/15 11:21:07;;;;;;;2.50;1.70;;;;;;;18.91;61.10;98905.16;1679954;85;21051;-75
2021/05/15 11:23:37;;;;;;;1.95;1.75;;;;;;;19.09;58.79;98898.96;1679760;85;21123;-78
2021/05/15 11:26:07;;;;;;;2.72;1.90;;;;;;;19.19;59.05;98904.02;1679421;85;21087;-79
2021/05/15 11:28:33;;;;;;;4.08;1.80;;;;;;;19.35;59.50;98899.00;1682714;85;21074;-78
2021/05/15 11:31:00;;;;;;;2.22;1.62;;;;;;;19.59;59.04;98895.68;1682688;85;21598;-77
2021/05/15 11:33:28;;;;;;;1.82;1.60;;;;;;;19.90;58.35;98895.47;1679455;85;21062;-79
2021/05/15 11:35:57;;;;;;;2.47;1.70;;;;;;;20.24;58.09;98887.76;1679401;85;21106;-79
2021/05/15 11:38:26;;;;;;;2.60;1.67;;;;;;;20.43;56.79;98887.09;1678818;85;21071;-78
2021/05/15 11:40:58;;;;;;;2.15;1.75;;;;;;;20.59;56.53;98885.19;1668166;84;21155;-78
2021/05/15 11:43:37;;;;;;;2.00;1.77;;;;;;;20.60;55.00;98887.67;1683862;85;21084;-78